Time;durP1;ratioP1;P1;durP2;ratioP2;P2;SDS_P1;SDS_P2;PMS_P1;PMS_P2;Temp;Humidity;BMP_temperature;BMP_pressure;BME280_temperature;BME280_humidity;BME280_pressure;Samples;Min_cycle;Max_cycle;Signal;HPM_P1;HPM_P2
2023/05/11 00:00:29;;;;;;;1.13;0.88;;;19.80;63.70;;;;;;4992954;28;20027;-73
2023/05/11 00:02:55;;;;;;;2.38;1.10;;;19.80;63.70;;;;;;4980679;28;20026;-73
2023/05/11 00:05:20;;;;;;;2.00;1.48;;;19.70;63.50;;;;;;4995054;28;20034;-73
2023/05/11 00:07:46;;;;;;;1.85;1.00;;;19.80;63.60;;;;;;4991201;28;20037;-72
2023/05/11 00:10:11;;;;;;;2.92;1.10;;;19.70;63.60;;;;;;4992664;28;20061;-72
2023/05/11 00:12:37;;;;;;;2.92;1.08;;;19.80;63.70;;;;;;4986455;28;20100;-72
2023/05/11 00:15:03;;;;;;;2.45;1.23;;;19.80;63.60;;;;;;4992393;28;20117;-72
2023/05/11 00:17:28;;;;;;;1.27;0.90;;;19.70;63.50;;;;;;4988348;28;20038;-71
2023/05/11 00:19:54;;;;;;;1.98;0.98;;;19.80;63.60;;;;;;4989180;28;20451;-72
2023/05/11 00:22:19;;;;;;;2.30;1.02;;;19.80;63.50;;;;;;4992280;28;20038;-72
2023/05/11 00:24:44;;;;;;;2.42;1.00;;;19.70;63.50;;;;;;4997291;28;20092;-72
2023/05/11 00:27:10;;;;;;;2.33;1.20;;;19.70;63.60;;;;;;4983492;28;20428;-72
2023/05/11 00:29:35;;;;;;;3.00;1.13;;;19.70;63.50;;;;;;4993157;28;20070;-72
2023/05/11 00:32:01;;;;;;;1.70;0.85;;;19.70;63.60;;;;;;4995167;28;20428;-72
2023/05/11 00:34:27;;;;;;;3.90;1.10;;;19.80;63.60;;;;;;4992799;28;20065;-72
2023/05/11 00:36:52;;;;;;;2.20;1.50;;;19.70;63.50;;;;;;4990238;28;20030;-73
2023/05/11 00:39:17;;;;;;;1.60;1.02;;;19.80;63.60;;;;;;4990323;28;20575;-72
2023/05/11 00:41:43;;;;;;;1.95;1.10;;;19.80;63.60;;;;;;4989532;28;20027;-73
2023/05/11 00:44:09;;;;;;;2.88;1.58;;;19.70;64.10;;;;;;4974327;28;20546;-73
2023/05/11 00:46:36;;;;;;;2.35;1.05;;;19.70;63.40;;;;;;4994581;28;20047;-73
2023/05/11 00:49:02;;;;;;;1.88;1.25;;;19.70;63.40;;;;;;4995928;28;20105;-72
2023/05/11 00:51:27;;;;;;;1.38;0.98;;;19.70;63.50;;;;;;4995745;28;20161;-72
2023/05/11 00:53:53;;;;;;;2.05;1.08;;;19.70;63.50;;;;;;4984352;28;20038;-72
2023/05/11 00:56:19;;;;;;;1.27;0.80;;;19.70;63.60;;;;;;4999841;28;20501;-73
2023/05/11 00:58:44;;;;;;;4.35;1.00;;;19.70;63.50;;;;;;4998103;28;20149;-72
2023/05/11 01:01:10;;;;;;;2.40;1.35;;;19.80;63.60;;;;;;4992467;28;20527;-73
2023/05/11 01:03:36;;;;;;;2.30;0.95;;;19.70;63.50;;;;;;4977937;28;20122;-73
2023/05/11 01:06:10;;;;;;;2.50;1.17;;;19.70;63.40;;;;;;4994607;28;20035;-72
2023/05/11 01:08:45;;;;;;;1.92;1.10;;;19.70;63.50;;;;;;4992290;28;20046;-73
2023/05/11 01:11:29;;;;;;;1.38;0.85;;;19.70;63.40;;;;;;4992041;28;20045;-72
2023/05/11 01:14:04;;;;;;;2.35;1.20;;;19.70;63.50;;;;;;4978778;28;20050;-71
2023/05/11 01:16:33;;;;;;;2.75;1.08;;;19.70;63.40;;;;;;4973488;28;20033;-73
2023/05/11 01:19:42;;;;;;;2.05;1.45;;;19.70;63.50;;;;;;4976858;28;20575;-72
2023/05/11 01:22:32;;;;;;;3.72;1.17;;;19.70;63.40;;;;;;4974798;28;20030;-73
2023/05/11 01:25:12;;;;;;;2.60;1.05;;;19.70;63.50;;;;;;4984907;28;20042;-72
2023/05/11 01:28:06;;;;;;;1.98;1.20;;;19.70;63.40;;;;;;4999751;28;20026;-73
2023/05/11 01:30:42;;;;;;;2.53;0.93;;;19.70;63.40;;;;;;4993650;28;20030;-73
2023/05/11 01:33:11;;;;;;;2.20;1.52;;;19.70;63.40;;;;;;4996246;28;20162;-73
2023/05/11 01:35:41;;;;;;;1.35;0.90;;;19.70;63.40;;;;;;4999586;28;20022;-74
2023/05/11 01:38:12;;;;;;;2.60;1.17;;;19.70;63.30;;;;;;4978296;28;20018;-73
2023/05/11 01:40:40;;;;;;;2.58;0.90;;;19.70;63.40;;;;;;4991494;28;20056;-73
2023/05/11 01:43:20;;;;;;;4.38;1.17;;;19.70;63.40;;;;;;4975781;28;20041;-72
2023/05/11 01:45:47;;;;;;;2.15;1.10;;;19.70;63.40;;;;;;4994292;28;20563;-73
2023/05/11 01:48:17;;;;;;;2.60;1.08;;;19.70;63.40;;;;;;4973122;28;20045;-73
2023/05/11 01:50:43;;;;;;;2.35;0.98;;;19.70;63.40;;;;;;5001722;28;20034;-72
2023/05/11 01:53:11;;;;;;;1.30;1.17;;;19.70;63.40;;;;;;5000631;28;20034;-73
2023/05/11 01:55:38;;;;;;;1.45;0.95;;;19.70;63.30;;;;;;4999362;28;20033;-72
2023/05/11 01:58:07;;;;;;;2.70;1.13;;;19.70;63.40;;;;;;4981444;28;20408;-73
2023/05/11 02:00:34;;;;;;;3.90;1.13;;;19.70;63.40;;;;;;4996168;28;20034;-73
2023/05/11 02:03:02;;;;;;;2.75;0.80;;;19.70;63.30;;;;;;4996878;28;20041;-72
2023/05/11 02:05:29;;;;;;;1.35;0.90;;;19.70;63.40;;;;;;4991401;28;20037;-70
2023/05/11 02:07:57;;;;;;;1.98;1.27;;;19.70;63.40;;;;;;4992090;28;20085;-72
2023/05/11 02:10:25;;;;;;;1.08;0.93;;;19.70;63.40;;;;;;4991642;28;20404;-73
2023/05/11 02:12:52;;;;;;;2.15;0.80;;;19.70;63.40;;;;;;4993361;28;20026;-73
2023/05/11 02:15:20;;;;;;;1.55;1.10;;;19.70;63.30;;;;;;4991332;28;20034;-73
2023/05/11 02:17:46;;;;;;;1.52;0.95;;;19.70;63.40;;;;;;4995797;28;20467;-73
2023/05/11 02:20:13;;;;;;;1.88;1.15;;;19.70;63.30;;;;;;4999594;28;20044;-73
2023/05/11 02:22:40;;;;;;;1.77;1.13;;;19.70;63.30;;;;;;4995905;28;20034;-72
2023/05/11 02:25:08;;;;;;;1.35;0.80;;;19.60;63.30;;;;;;4979693;28;20026;-72
2023/05/11 02:27:34;;;;;;;0.90;0.80;;;19.60;63.30;;;;;;4988077;28;20030;-72
2023/05/11 02:30:01;;;;;;;2.00;1.20;;;19.70;63.30;;;;;;4990748;28;20410;-73
2023/05/11 02:32:29;;;;;;;1.27;1.00;;;19.70;63.30;;;;;;4992995;28;20272;-72
2023/05/11 02:35:01;;;;;;;1.98;1.02;;;19.60;63.30;;;;;;4992020;28;20169;-72
2023/05/11 02:37:29;;;;;;;1.17;1.08;;;19.60;63.30;;;;;;4988941;28;20040;-73
2023/05/11 02:40:01;;;;;;;2.95;1.13;;;19.60;63.30;;;;;;4992463;28;20397;-72
2023/05/11 02:42:29;;;;;;;1.40;0.88;;;19.70;63.30;;;;;;4991543;28;20038;-73
2023/05/11 02:44:57;;;;;;;1.02;0.93;;;19.70;63.30;;;;;;4993375;28;20041;-72
2023/05/11 02:47:27;;;;;;;2.30;0.90;;;19.60;63.30;;;;;;4993716;28;20030;-73
2023/05/11 02:49:56;;;;;;;0.80;0.80;;;19.60;63.30;;;;;;4966234;28;20030;-72
2023/05/11 02:52:24;;;;;;;1.90;1.38;;;19.60;63.30;;;;;;4995856;28;20041;-73
2023/05/11 02:54:51;;;;;;;1.00;0.90;;;19.60;63.30;;;;;;4997042;28;20029;-72
2023/05/11 02:57:17;;;;;;;3.05;1.27;;;19.60;63.30;;;;;;4992115;28;20027;-73
2023/05/11 02:59:45;;;;;;;1.48;1.00;;;19.60;63.30;;;;;;4993750;28;20516;-73
2023/05/11 03:02:10;;;;;;;2.20;1.08;;;19.60;63.30;;;;;;4994419;28;20041;-73
2023/05/11 03:04:37;;;;;;;1.45;1.13;;;19.60;63.20;;;;;;4988974;28;20026;-73
2023/05/11 03:07:02;;;;;;;1.25;0.95;;;19.70;63.20;;;;;;4982410;28;20033;-72
2023/05/11 03:09:28;;;;;;;2.00;1.17;;;19.60;63.20;;;;;;4990160;28;20158;-72
2023/05/11 03:11:53;;;;;;;1.60;1.10;;;19.60;63.20;;;;;;4992556;28;20026;-73
2023/05/11 03:14:20;;;;;;;1.40;1.10;;;19.60;63.20;;;;;;4993499;28;20030;-73
2023/05/11 03:16:47;;;;;;;2.78;1.45;;;19.60;63.20;;;;;;4992735;28;20022;-73
2023/05/11 03:19:13;;;;;;;2.17;1.20;;;19.60;63.30;;;;;;4997092;28;20034;-72
2023/05/11 03:21:39;;;;;;;1.05;0.95;;;19.60;63.20;;;;;;4992836;28;20026;-72
2023/05/11 03:24:06;;;;;;;0.80;0.80;;;19.60;63.90;;;;;;4998339;28;20540;-72
2023/05/11 03:26:33;;;;;;;3.00;1.00;;;19.60;63.30;;;;;;4991048;28;20038;-73
2023/05/11 03:28:59;;;;;;;1.52;0.95;;;19.60;63.30;;;;;;4991300;28;20422;-72
2023/05/11 03:31:25;;;;;;;1.48;1.08;;;19.60;63.20;;;;;;4989086;28;20030;-72
2023/05/11 03:33:51;;;;;;;1.35;1.25;;;19.60;63.20;;;;;;4975833;28;20048;-72
2023/05/11 03:36:17;;;;;;;1.52;1.17;;;19.60;63.20;;;;;;4991764;28;20030;-72
2023/05/11 03:38:45;;;;;;;1.23;0.90;;;19.60;63.30;;;;;;4989957;28;20026;-72
2023/05/11 03:41:14;;;;;;;0.85;0.85;;;19.60;63.90;;;;;;4974974;28;20493;-72
2023/05/11 03:43:40;;;;;;;1.13;1.02;;;19.60;63.30;;;;;;4991187;28;20044;-73
2023/05/11 03:46:07;;;;;;;1.20;1.05;;;19.60;63.20;;;;;;4992525;28;20033;-72
2023/05/11 03:48:32;;;;;;;1.33;0.90;;;19.60;63.30;;;;;;4993636;28;20535;-73
2023/05/11 03:50:58;;;;;;;1.55;1.00;;;19.60;63.20;;;;;;4998404;28;20046;-73
2023/05/11 03:53:24;;;;;;;1.23;1.13;;;19.60;63.30;;;;;;4996400;28;20389;-72
2023/05/11 03:55:51;;;;;;;1.77;1.38;;;19.60;63.20;;;;;;4972806;28;20038;-72
2023/05/11 03:58:17;;;;;;;1.27;1.08;;;19.60;63.30;;;;;;4992013;28;20041;-69
2023/05/11 04:00:42;;;;;;;1.65;1.23;;;19.60;63.30;;;;;;4989132;28;20042;-71
2023/05/11 04:03:08;;;;;;;2.80;1.52;;;19.60;63.30;;;;;;4990490;28;20030;-71
2023/05/11 04:05:34;;;;;;;2.42;1.00;;;19.60;63.30;;;;;;4988977;28;20049;-71
2023/05/11 04:08:01;;;;;;;1.80;1.23;;;19.60;63.30;;;;;;4993614;28;20034;-70
2023/05/11 04:10:26;;;;;;;1.30;1.10;;;19.60;63.30;;;;;;4983115;28;20030;-72
2023/05/11 04:12:52;;;;;;;3.10;1.55;;;19.60;63.30;;;;;;4996290;28;20037;-72
2023/05/11 04:15:18;;;;;;;2.88;1.20;;;19.60;63.40;;;;;;4989891;28;20042;-76
2023/05/11 04:17:43;;;;;;;2.22;1.10;;;19.60;63.30;;;;;;4994676;28;20068;-70
2023/05/11 04:20:09;;;;;;;3.95;1.65;;;19.60;63.40;;;;;;4995118;28;20036;-72
2023/05/11 04:22:34;;;;;;;3.65;1.55;;;19.60;63.50;;;;;;4986574;28;20332;-71
2023/05/11 04:25:00;;;;;;;4.15;1.45;;;19.60;63.50;;;;;;4994363;28;20022;-73
2023/05/11 04:27:26;;;;;;;3.25;1.70;;;19.60;63.70;;;;;;4990624;28;20031;-72
2023/05/11 04:29:51;;;;;;;6.00;1.88;;;19.60;64.50;;;;;;4971157;28;20029;-70
2023/05/11 04:32:17;;;;;;;2.10;1.73;;;19.60;63.90;;;;;;4993303;28;20274;-70
2023/05/11 04:34:42;;;;;;;5.40;1.55;;;19.60;64.10;;;;;;4991063;28;20038;-74
2023/05/11 04:37:08;;;;;;;3.80;1.67;;;19.60;64.10;;;;;;4974840;28;20113;-71
2023/05/11 04:39:33;;;;;;;3.08;1.52;;;19.60;64.00;;;;;;4991261;28;20058;-71
2023/05/11 04:41:59;;;;;;;5.47;1.60;;;19.60;63.90;;;;;;4994264;28;20018;-70
2023/05/11 04:44:25;;;;;;;4.55;1.63;;;19.60;64.10;;;;;;4991451;28;20034;-70
2023/05/11 04:46:56;;;;;;;5.00;1.77;;;19.60;64.10;;;;;;4993838;28;20042;-71
2023/05/11 04:49:22;;;;;;;2.47;1.83;;;19.60;64.20;;;;;;4993027;28;20109;-70
2023/05/11 04:51:47;;;;;;;1.90;1.50;;;19.60;64.40;;;;;;4978621;28;20109;-70
2023/05/11 04:54:13;;;;;;;4.00;1.63;;;19.60;64.30;;;;;;4995133;28;20037;-69
2023/05/11 04:56:39;;;;;;;4.43;1.75;;;19.60;64.20;;;;;;4988615;28;20336;-70
2023/05/11 04:59:08;;;;;;;4.43;1.60;;;19.60;64.20;;;;;;4991744;28;20057;-71
2023/05/11 05:01:34;;;;;;;2.97;1.80;;;19.60;64.10;;;;;;4987849;28;20272;-72
2023/05/11 05:03:59;;;;;;;3.90;1.77;;;19.60;64.00;;;;;;4990212;28;20038;-72
2023/05/11 05:06:25;;;;;;;2.47;1.95;;;19.60;64.10;;;;;;4958081;28;20668;-71
2023/05/11 05:08:50;;;;;;;3.35;2.45;;;19.60;64.20;;;;;;4986205;28;20445;-72
2023/05/11 05:11:16;;;;;;;2.58;2.00;;;19.60;64.40;;;;;;4971616;28;20027;-71
2023/05/11 05:13:42;;;;;;;3.10;1.60;;;19.60;64.40;;;;;;4971443;28;20061;-72
2023/05/11 05:16:08;;;;;;;5.47;1.75;;;19.60;64.40;;;;;;4970699;28;20035;-71
2023/05/11 05:18:33;;;;;;;8.30;2.60;;;19.60;64.40;;;;;;4975962;28;20162;-71
2023/05/11 05:20:59;;;;;;;5.55;2.20;;;19.70;64.70;;;;;;4976075;28;20409;-72
2023/05/11 05:23:25;;;;;;;8.63;2.47;;;19.70;65.00;;;;;;4961855;28;20036;-72
2023/05/11 05:25:50;;;;;;;5.00;3.15;;;19.70;64.90;;;;;;4976538;28;20054;-71
2023/05/11 05:28:16;;;;;;;3.28;2.67;;;19.70;64.80;;;;;;4970613;28;20701;-72
2023/05/11 05:30:41;;;;;;;6.38;3.10;;;19.70;64.70;;;;;;4972876;28;20035;-72
2023/05/11 05:33:07;;;;;;;6.35;3.28;;;19.70;64.90;;;;;;4975157;28;20030;-72
2023/05/11 05:35:32;;;;;;;7.03;2.63;;;19.70;64.70;;;;;;4973732;28;20077;-72
2023/05/11 05:37:58;;;;;;;7.13;3.40;;;19.70;64.70;;;;;;4974787;28;20278;-72
2023/05/11 05:40:23;;;;;;;5.00;2.42;;;19.70;64.60;;;;;;4976884;28;20041;-72
2023/05/11 05:42:49;;;;;;;6.00;2.53;;;19.70;64.70;;;;;;4975867;28;20034;-72
2023/05/11 05:45:15;;;;;;;5.55;3.00;;;19.70;64.60;;;;;;4980052;28;20035;-71
2023/05/11 05:47:41;;;;;;;5.70;2.58;;;19.70;64.50;;;;;;4978322;28;20094;-72
2023/05/11 05:50:07;;;;;;;16.05;4.88;;;19.70;64.40;;;;;;4979030;28;20027;-72
2023/05/11 05:52:33;;;;;;;8.02;2.83;;;19.70;64.50;;;;;;4976460;28;20081;-72
2023/05/11 05:54:58;;;;;;;6.07;3.08;;;19.70;64.50;;;;;;4975649;28;20027;-71
2023/05/11 05:57:23;;;;;;;2.90;2.50;;;19.70;64.30;;;;;;4977169;28;20583;-72
2023/05/11 05:59:49;;;;;;;5.43;2.65;;;19.70;64.40;;;;;;4973283;28;20038;-72
2023/05/11 06:02:15;;;;;;;4.65;3.20;;;19.70;64.30;;;;;;4973404;28;20493;-70
2023/05/11 06:04:41;;;;;;;3.97;2.47;;;19.70;64.30;;;;;;4981909;28;20026;-72
2023/05/11 06:07:07;;;;;;;3.78;2.65;;;19.70;64.20;;;;;;4994554;28;20030;-72
2023/05/11 06:09:32;;;;;;;3.78;2.97;;;19.70;64.30;;;;;;4994465;28;20765;-72
2023/05/11 06:11:57;;;;;;;7.35;2.38;;;19.70;64.10;;;;;;4993073;28;20112;-72
2023/05/11 06:14:23;;;;;;;5.15;2.80;;;19.70;64.20;;;;;;4995721;28;20493;-72
2023/05/11 06:16:48;;;;;;;5.78;2.72;;;19.80;64.10;;;;;;4996752;28;20032;-72
2023/05/11 06:19:14;;;;;;;3.35;2.50;;;19.80;64.00;;;;;;4998711;28;22744;-71
2023/05/11 06:21:44;;;;;;;4.03;2.70;;;19.70;64.00;;;;;;4983822;28;20038;-72
2023/05/11 06:24:10;;;;;;;3.92;2.50;;;19.80;64.00;;;;;;4990773;28;20038;-71
2023/05/11 06:26:36;;;;;;;2.97;2.67;;;19.70;64.10;;;;;;4980950;28;20649;-72
2023/05/11 06:29:01;;;;;;;4.78;3.35;;;19.80;64.20;;;;;;4988965;28;20723;-72
2023/05/11 06:31:28;;;;;;;5.82;2.72;;;19.80;64.20;;;;;;4991020;28;20402;-72
2023/05/11 06:33:54;;;;;;;6.00;2.83;;;19.80;64.20;;;;;;4993318;28;20030;-73
2023/05/11 06:36:19;;;;;;;7.97;3.20;;;19.80;64.30;;;;;;4976667;28;20559;-74
2023/05/11 06:38:45;;;;;;;6.57;2.72;;;19.80;64.20;;;;;;4995974;28;20038;-73
2023/05/11 06:41:10;;;;;;;5.70;3.42;;;19.80;64.20;;;;;;4975246;28;20587;-75
2023/05/11 06:43:37;;;;;;;9.90;3.17;;;19.80;64.20;;;;;;4998674;28;20038;-72
2023/05/11 06:46:03;;;;;;;4.70;2.65;;;19.90;64.10;;;;;;4998750;28;20351;-72
2023/05/11 06:48:28;;;;;;;5.03;2.63;;;19.90;64.00;;;;;;4995911;28;20034;-71
2023/05/11 06:50:54;;;;;;;5.40;2.60;;;19.90;64.00;;;;;;4991871;28;20388;-71
2023/05/11 06:53:20;;;;;;;4.95;2.70;;;19.90;64.10;;;;;;4991700;28;20034;-73
2023/05/11 06:55:46;;;;;;;9.18;3.20;;;19.90;64.00;;;;;;4992971;28;20528;-73
2023/05/11 06:58:12;;;;;;;5.63;2.90;;;19.90;64.10;;;;;;4990913;28;20088;-73
2023/05/11 07:00:37;;;;;;;9.25;3.17;;;19.90;64.10;;;;;;4990178;28;20122;-72
2023/05/11 07:03:04;;;;;;;6.70;2.50;;;19.90;63.90;;;;;;4992511;28;20045;-73
2023/05/11 07:05:30;;;;;;;6.38;3.35;;;19.90;64.10;;;;;;4992513;28;20030;-70
2023/05/11 07:07:55;;;;;;;6.20;3.13;;;19.90;63.90;;;;;;4995778;28;20029;-72
2023/05/11 07:10:21;;;;;;;4.72;2.92;;;19.90;63.90;;;;;;4991174;28;20043;-71
2023/05/11 07:12:46;;;;;;;4.63;2.95;;;19.90;63.90;;;;;;4990555;28;20564;-72
2023/05/11 07:15:12;;;;;;;3.15;2.70;;;19.90;63.90;;;;;;4998908;28;20048;-73
2023/05/11 07:17:37;;;;;;;4.85;3.30;;;20.00;63.90;;;;;;4995232;28;20119;-72
2023/05/11 07:20:03;;;;;;;8.77;2.97;;;20.00;63.90;;;;;;4993709;28;20034;-72
2023/05/11 07:22:28;;;;;;;4.82;3.65;;;20.00;63.90;;;;;;4988847;28;20045;-72
2023/05/11 07:24:54;;;;;;;3.45;3.00;;;20.00;63.90;;;;;;4992028;28;20048;-74
2023/05/11 07:27:19;;;;;;;6.00;2.95;;;20.00;63.90;;;;;;4990534;28;20084;-73
2023/05/11 07:29:45;;;;;;;4.65;2.67;;;20.00;63.90;;;;;;4992677;28;20030;-70
2023/05/11 07:32:10;;;;;;;3.58;3.17;;;20.00;63.80;;;;;;4994292;28;20026;-73
2023/05/11 07:34:36;;;;;;;6.57;3.33;;;20.00;63.90;;;;;;4992990;28;20502;-73
2023/05/11 07:37:01;;;;;;;9.30;2.97;;;20.00;63.90;;;;;;4977161;28;20026;-73
2023/05/11 07:39:27;;;;;;;7.72;3.10;;;20.00;63.70;;;;;;4990102;28;20545;-74
2023/05/11 07:41:52;;;;;;;9.57;3.55;;;20.00;63.80;;;;;;4991682;28;20023;-73
2023/05/11 07:44:18;;;;;;;5.32;3.00;;;20.00;63.80;;;;;;4997455;28;20339;-74
2023/05/11 07:46:43;;;;;;;4.53;3.10;;;20.00;63.90;;;;;;4977134;28;20117;-73
2023/05/11 07:49:09;;;;;;;4.88;3.30;;;20.00;63.90;;;;;;4996038;28;20065;-74
2023/05/11 07:51:36;;;;;;;4.15;3.75;;;20.00;63.90;;;;;;4993894;28;20532;-74
2023/05/11 07:54:01;;;;;;;6.00;4.15;;;20.00;64.00;;;;;;4990479;28;20034;-73
2023/05/11 07:56:27;;;;;;;5.18;4.00;;;20.00;64.00;;;;;;4987198;28;20030;-73
2023/05/11 07:58:52;;;;;;;4.80;4.10;;;20.00;63.90;;;;;;4991209;28;20081;-73
2023/05/11 08:01:18;;;;;;;4.78;4.30;;;20.00;63.90;;;;;;4991092;28;20034;-73
2023/05/11 08:03:43;;;;;;;4.97;3.88;;;20.00;63.90;;;;;;4989857;28;20065;-73
2023/05/11 08:06:09;;;;;;;5.22;4.10;;;20.00;63.90;;;;;;4994045;28;20022;-71
2023/05/11 08:08:34;;;;;;;6.03;4.32;;;20.00;63.90;;;;;;4991905;28;20058;-73
2023/05/11 08:11:00;;;;;;;5.88;4.15;;;20.00;64.00;;;;;;4992547;28;20408;-71
2023/05/11 08:13:26;;;;;;;4.40;3.95;;;20.00;64.00;;;;;;4972769;28;20122;-73
2023/05/11 08:15:51;;;;;;;7.63;4.53;;;20.00;64.60;;;;;;4980924;28;20194;-73
2023/05/11 08:18:17;;;;;;;4.32;3.88;;;20.00;64.60;;;;;;4990798;28;20049;-73
2023/05/11 08:20:42;;;;;;;4.28;3.88;;;20.00;63.90;;;;;;4990058;28;20061;-73
2023/05/11 08:23:09;;;;;;;4.55;4.15;;;20.00;63.90;;;;;;4990161;28;20497;-73
2023/05/11 08:25:35;;;;;;;7.90;4.65;;;20.00;63.90;;;;;;4990060;28;21557;-74
2023/05/11 08:28:01;;;;;;;4.93;4.00;;;20.00;63.90;;;;;;4990690;28;20042;-72
2023/05/11 08:30:26;;;;;;;5.60;4.05;;;20.00;64.60;;;;;;4990724;28;20030;-73
2023/05/11 08:32:52;;;;;;;4.22;3.83;;;20.00;64.10;;;;;;4991915;28;20032;-73
2023/05/11 08:35:18;;;;;;;4.95;4.18;;;20.00;64.00;;;;;;4993781;28;20095;-73
2023/05/11 08:37:43;;;;;;;5.93;3.70;;;20.00;63.90;;;;;;4986739;28;20037;-73
2023/05/11 08:40:10;;;;;;;3.65;3.35;;;20.00;63.90;;;;;;4995951;28;20022;-73
2023/05/11 08:42:39;;;;;;;6.15;3.58;;;20.00;63.90;;;;;;4996533;28;20039;-73
2023/05/11 08:45:06;;;;;;;6.65;3.63;;;20.00;64.00;;;;;;4995893;28;20026;-73
2023/05/11 08:47:32;;;;;;;4.60;3.88;;;20.00;63.90;;;;;;4992182;28;20042;-73
2023/05/11 08:49:58;;;;;;;5.03;3.88;;;20.00;63.90;;;;;;4993054;28;20033;-73
2023/05/11 08:52:24;;;;;;;4.25;3.67;;;20.00;63.90;;;;;;4973250;28;20037;-73
2023/05/11 08:54:50;;;;;;;5.97;3.85;;;20.00;63.90;;;;;;4971275;28;20500;-73
2023/05/11 08:57:16;;;;;;;4.13;3.72;;;20.00;63.90;;;;;;4971742;28;21641;-70
2023/05/11 08:59:45;;;;;;;6.53;3.92;;;20.00;63.90;;;;;;4970643;28;20497;-72
2023/05/11 09:02:16;;;;;;;4.35;3.80;;;20.00;63.90;;;;;;4971436;28;20026;-73
2023/05/11 09:04:42;;;;;;;3.92;3.53;;;19.90;63.80;;;;;;4977688;28;20070;-73
2023/05/11 09:07:10;;;;;;;4.03;3.72;;;20.00;63.80;;;;;;4975708;28;20513;-73
2023/05/11 09:09:36;;;;;;;4.32;3.92;;;20.00;63.80;;;;;;4974786;28;20066;-73
2023/05/11 09:12:02;;;;;;;3.78;2.97;;;20.00;63.80;;;;;;4979739;28;20072;-73
2023/05/11 09:14:28;;;;;;;3.83;3.47;;;20.00;64.10;;;;;;4980502;28;20026;-73
2023/05/11 09:16:54;;;;;;;4.05;3.60;;;20.00;63.70;;;;;;5000621;28;20029;-73
2023/05/11 09:19:19;;;;;;;4.85;3.58;;;20.00;63.70;;;;;;4994621;28;20038;-73
2023/05/11 09:21:46;;;;;;;4.65;3.50;;;20.00;63.60;;;;;;4978679;28;20022;-73
2023/05/11 09:24:12;;;;;;;4.45;3.30;;;20.00;63.70;;;;;;4992722;28;20041;-73
2023/05/11 09:26:37;;;;;;;3.65;3.35;;;20.00;63.60;;;;;;4993983;28;20034;-72
2023/05/11 09:29:03;;;;;;;4.32;3.30;;;20.00;63.60;;;;;;4995014;28;20441;-72
2023/05/11 09:31:40;;;;;;;3.70;3.20;;;20.00;63.60;;;;;;4976214;28;20062;-71
2023/05/11 09:34:16;;;;;;;5.97;3.58;;;20.00;63.60;;;;;;4981025;28;20096;-72
2023/05/11 09:36:46;;;;;;;4.13;3.28;;;20.00;63.60;;;;;;4993910;28;20405;-72
2023/05/11 09:39:13;;;;;;;3.55;3.25;;;20.00;63.60;;;;;;4992807;28;20034;-72
2023/05/11 09:41:39;;;;;;;3.50;3.20;;;20.00;63.60;;;;;;4996983;28;20030;-72
2023/05/11 09:44:09;;;;;;;6.65;3.50;;;20.00;63.70;;;;;;4999029;28;20038;-72
2023/05/11 09:46:38;;;;;;;4.28;3.47;;;20.00;63.70;;;;;;4993907;28;20229;-73
2023/05/11 09:49:05;;;;;;;8.10;4.22;;;20.00;63.80;;;;;;4994115;28;20552;-73
2023/05/11 09:51:32;;;;;;;6.35;3.40;;;20.00;63.70;;;;;;4990020;28;20041;-72
2023/05/11 09:53:59;;;;;;;5.22;3.30;;;20.00;63.70;;;;;;4995036;28;20559;-72
2023/05/11 09:56:53;;;;;;;7.15;3.90;;;20.00;63.60;;;;;;4993423;28;20040;-73
2023/05/11 09:59:42;;;;;;;3.47;3.17;;;20.00;63.70;;;;;;4974577;28;20027;-71
2023/05/11 10:02:20;;;;;;;4.18;3.25;;;20.00;63.80;;;;;;4975562;28;20105;-72
2023/05/11 10:04:47;;;;;;;4.70;3.42;;;20.00;63.70;;;;;;4995209;28;20104;-72
2023/05/11 10:07:30;;;;;;;4.43;3.22;;;20.00;63.70;;;;;;4972273;28;20037;-72
2023/05/11 10:09:58;;;;;;;5.85;3.88;;;20.00;63.60;;;;;;4979611;28;20033;-72
2023/05/11 10:12:26;;;;;;;4.32;3.42;;;20.00;63.60;;;;;;4986249;28;20031;-73
2023/05/11 10:15:04;;;;;;;6.15;3.38;;;20.00;63.60;;;;;;4995136;28;20099;-72
2023/05/11 10:17:30;;;;;;;5.63;3.33;;;20.00;63.60;;;;;;4988603;28;20560;-72
2023/05/11 10:19:57;;;;;;;3.60;3.30;;;20.00;63.60;;;;;;4989555;28;20039;-71
2023/05/11 10:22:27;;;;;;;3.45;2.90;;;20.00;63.60;;;;;;4964195;28;20039;-72
2023/05/11 10:24:53;;;;;;;4.80;3.15;;;20.10;63.70;;;;;;4994328;28;20080;-73
2023/05/11 10:27:20;;;;;;;6.95;3.10;;;20.10;63.70;;;;;;4976533;28;20154;-72
2023/05/11 10:29:46;;;;;;;5.75;3.33;;;20.00;63.60;;;;;;4993179;28;20034;-73
2023/05/11 10:32:12;;;;;;;3.70;3.30;;;20.10;63.70;;;;;;4994798;28;20189;-73
2023/05/11 10:34:38;;;;;;;3.97;3.15;;;20.10;63.70;;;;;;4979261;28;20541;-73
2023/05/11 10:37:05;;;;;;;4.50;3.50;;;20.10;63.80;;;;;;4996073;28;20026;-72
2023/05/11 10:39:31;;;;;;;5.03;3.58;;;20.10;63.60;;;;;;4998399;28;20030;-72
2023/05/11 10:42:06;;;;;;;4.35;3.13;;;20.10;63.60;;;;;;5001191;28;20033;-72
2023/05/11 10:45:29;;;;;;;7.73;3.17;;;20.10;63.60;;;;;;4994645;28;20083;-72
2023/05/11 10:48:30;;;;;;;3.55;2.95;;;20.10;63.60;;;;;;4893790;29;20116;-72
2023/05/11 10:51:30;;;;;;;4.90;3.33;;;20.10;64.30;;;;;;4888075;29;20036;-73
2023/05/11 10:54:20;;;;;;;3.42;2.97;;;20.10;63.50;;;;;;4986585;28;20069;-71
2023/05/11 10:57:05;;;;;;;3.03;2.75;;;20.10;64.20;;;;;;4991400;28;20026;-73
2023/05/11 11:00:09;;;;;;;3.75;3.13;;;20.10;63.60;;;;;;4990148;28;20034;-73
2023/05/11 11:02:36;;;;;;;4.60;2.50;;;20.10;63.60;;;;;;4990161;28;20050;-72
2023/05/11 11:05:04;;;;;;;14.68;4.70;;;20.10;63.90;;;;;;4993341;28;20420;-72
2023/05/11 11:07:30;;;;;;;8.82;3.60;;;20.10;63.80;;;;;;4995333;28;20029;-72
2023/05/11 11:09:59;;;;;;;7.28;2.83;;;20.10;63.70;;;;;;4996180;28;20029;-72
2023/05/11 11:12:26;;;;;;;4.90;3.00;;;20.10;63.80;;;;;;4967037;28;20033;-74
2023/05/11 11:14:57;;;;;;;3.90;2.97;;;20.10;63.70;;;;;;4993762;28;20479;-72
2023/05/11 11:17:26;;;;;;;3.20;2.90;;;20.10;63.70;;;;;;4984609;28;20045;-72
2023/05/11 11:19:52;;;;;;;6.53;3.60;;;20.10;63.70;;;;;;4989528;28;20022;-72
2023/05/11 11:22:33;;;;;;;3.28;2.97;;;20.10;63.70;;;;;;4969169;28;20089;-71
2023/05/11 11:24:59;;;;;;;7.38;3.10;;;20.10;63.70;;;;;;4984482;28;20026;-72
2023/05/11 11:27:40;;;;;;;5.60;3.25;;;20.10;63.70;;;;;;4974117;28;20081;-73
2023/05/11 11:30:16;;;;;;;6.43;3.00;;;20.10;63.60;;;;;;4985785;28;20117;-73
2023/05/11 11:32:41;;;;;;;3.08;2.78;;;20.10;63.70;;;;;;4993325;28;20034;-72
2023/05/11 11:35:39;;;;;;;3.10;2.80;;;20.10;63.70;;;;;;4993892;28;20035;-72
2023/05/11 11:38:13;;;;;;;6.18;3.28;;;20.10;63.70;;;;;;4962378;28;20483;-72
2023/05/11 11:40:45;;;;;;;4.60;3.03;;;20.10;63.60;;;;;;4981147;28;20429;-72
2023/05/11 11:43:17;;;;;;;4.40;2.75;;;20.10;63.60;;;;;;4996795;28;20034;-72
2023/05/11 11:46:02;;;;;;;2.90;2.60;;;20.10;63.60;;;;;;4985614;28;20109;-72
2023/05/11 11:48:30;;;;;;;5.65;3.40;;;20.10;63.60;;;;;;4968373;28;20058;-71
2023/05/11 11:51:09;;;;;;;3.45;3.15;;;20.10;64.20;;;;;;4978205;28;20041;-73
2023/05/11 11:53:35;;;;;;;3.65;2.95;;;20.10;63.60;;;;;;4975955;28;20093;-73
2023/05/11 11:56:22;;;;;;;3.30;3.00;;;20.10;63.60;;;;;;4995103;28;20025;-72
2023/05/11 11:58:55;;;;;;;3.08;2.78;;;20.10;63.50;;;;;;4977528;28;20394;-73
2023/05/11 12:01:27;;;;;;;4.80;2.83;;;20.10;63.60;;;;;;4992670;28;20060;-72
2023/05/11 12:04:26;;;;;;;5.57;3.10;;;20.10;63.60;;;;;;4992730;28;20034;-73
2023/05/11 12:06:56;;;;;;;5.93;3.17;;;20.10;63.60;;;;;;4979528;28;20219;-71
2023/05/11 12:09:22;;;;;;;2.78;2.47;;;20.10;63.60;;;;;;4976761;28;20526;-72
2023/05/11 12:11:48;;;;;;;3.67;3.10;;;20.10;63.60;;;;;;4977601;28;20069;-73
2023/05/11 12:14:14;;;;;;;4.32;2.65;;;20.10;63.50;;;;;;4968517;28;20022;-72
2023/05/11 12:16:40;;;;;;;2.90;2.65;;;20.10;63.60;;;;;;4952035;28;20037;-72
2023/05/11 12:19:05;;;;;;;4.70;2.75;;;20.10;63.60;;;;;;4985811;28;20378;-71
2023/05/11 12:21:31;;;;;;;4.07;2.70;;;20.10;63.50;;;;;;4988315;28;20026;-71
2023/05/11 12:24:01;;;;;;;5.13;2.88;;;20.10;63.50;;;;;;4973615;28;20464;-71
2023/05/11 12:26:29;;;;;;;3.38;3.00;;;20.10;63.50;;;;;;4960386;28;20133;-72
2023/05/11 12:29:12;;;;;;;3.63;2.80;;;20.10;63.50;;;;;;4977595;28;20038;-71
2023/05/11 12:31:39;;;;;;;6.65;2.90;;;20.10;63.50;;;;;;4973431;28;20481;-71
2023/05/11 12:34:05;;;;;;;2.50;2.30;;;20.10;63.60;;;;;;4991844;28;20459;-71
2023/05/11 12:36:32;;;;;;;4.60;3.13;;;20.00;63.50;;;;;;4992460;28;20030;-69
2023/05/11 12:38:58;;;;;;;3.03;2.70;;;20.10;63.50;;;;;;4998620;28;20037;-71
2023/05/11 12:41:24;;;;;;;2.88;2.63;;;20.00;63.50;;;;;;4973808;28;20085;-72
2023/05/11 12:43:51;;;;;;;2.97;2.67;;;20.10;63.60;;;;;;4997111;28;20453;-71
2023/05/11 12:46:17;;;;;;;3.33;3.03;;;20.00;63.60;;;;;;4993860;28;20540;-72
2023/05/11 12:48:48;;;;;;;2.70;2.05;;;20.10;63.50;;;;;;4994487;28;20034;-71
2023/05/11 12:51:33;;;;;;;3.05;2.75;;;20.00;63.50;;;;;;4995399;28;20110;-72
2023/05/11 12:53:59;;;;;;;3.55;2.72;;;20.10;63.50;;;;;;4977205;28;20583;-72